Terminal Aerodrome Forecast
Issued by NWS

Home | Current Version | Previous Version | Text Only | Print | Product List | Glossary On
Versions: 1 2 3 4 5 6 7 8 9 10 11 12 13 14 15 16 17 18
000
FTUS43 KIND 252300
TAFHUF
TAF
KHUF 252320Z 2600/2624 16004KT P6SM BKN100
      TEMPO 2609/2613 4SM BR BCFG
     FM261400 21009KT P6SM BKN060
     FM262300 21007KT P6SM VCTS BKN040CB=

USA.gov is the U.S. government's official web portal to all federal, state and local government web resources and services.